Time;durP1;ratioP1;P1;durP2;ratioP2;P2;SDS_P1;SDS_P2;PMS_P1;PMS_P2;Temp;Humidity;BMP_temperature;BMP_pressure;BME280_temperature;BME280_humidity;BME280_pressure;Samples;Min_cycle;Max_cycle;Signal;HPM_P1;HPM_P2
2023/06/13 00:02:16;;;;;;;13.15;3.40;;;;;;;17.94;80.25;99741.07;1754055;82;21277;-81
2023/06/13 00:05:22;;;;;;;7.72;3.90;;;;;;;17.97;80.15;99745.27;1751591;82;21301;-80
2023/06/13 00:08:31;;;;;;;11.05;3.72;;;;;;;18.10;79.53;99744.50;1753890;82;21258;-80
2023/06/13 00:11:36;;;;;;;12.58;3.85;;;;;;;18.10;79.34;99760.27;1752934;82;21273;-81
2023/06/13 00:14:43;;;;;;;6.28;3.42;;;;;;;17.98;79.50;99754.73;1753879;82;21266;-81
2023/06/13 00:17:49;;;;;;;9.90;3.52;;;;;;;17.87;80.42;99758.30;1754009;82;21822;-80
2023/06/13 00:20:58;;;;;;;4.85;3.00;;;;;;;17.78;80.49;99750.88;1752432;82;21325;-81
2023/06/13 00:24:03;;;;;;;7.28;3.77;;;;;;;17.98;79.88;99758.05;1753886;82;21282;-78
2023/06/13 00:27:10;;;;;;;5.70;3.58;;;;;;;18.23;78.57;99755.89;1752540;82;21286;-79
2023/06/13 00:30:15;;;;;;;7.90;3.70;;;;;;;18.20;78.72;99761.06;1752401;82;21188;-81
2023/06/13 00:33:27;;;;;;;5.20;3.40;;;;;;;18.05;78.94;99753.23;1752635;82;21316;-82
2023/06/13 00:36:33;;;;;;;5.78;3.30;;;;;;;18.03;79.13;99758.17;1753091;82;21282;-82
2023/06/13 00:39:38;;;;;;;11.75;3.85;;;;;;;18.25;78.55;99755.64;1754008;82;21242;-82
2023/06/13 00:42:45;;;;;;;12.53;3.70;;;;;;;18.06;78.81;99750.21;1753999;82;21241;-80
2023/06/13 00:45:51;;;;;;;4.70;3.80;;;;;;;17.66;80.70;99750.54;1753497;82;21218;-80
2023/06/13 00:48:58;;;;;;;9.23;4.08;;;;;;;17.78;80.58;99758.34;1753844;82;21818;-81
2023/06/13 00:52:08;;;;;;;5.90;3.33;;;;;;;18.03;79.52;99749.33;1752588;82;21770;-81
2023/06/13 00:55:14;;;;;;;5.83;3.58;;;;;;;17.95;79.70;99742.75;1754251;82;21305;-79
2023/06/13 00:58:20;;;;;;;8.03;4.33;;;;;;;17.72;79.99;99739.91;1754247;82;21254;-80
2023/06/13 01:01:27;;;;;;;7.97;4.00;;;;;;;17.89;79.80;99746.48;1754197;82;21274;-82
2023/06/13 01:04:34;;;;;;;14.07;4.15;;;;;;;18.00;78.38;99734.58;1753916;82;21309;-80
2023/06/13 01:07:41;;;;;;;6.25;3.83;;;;;;;17.85;79.48;99741.95;1752569;82;21292;-79
2023/06/13 01:10:47;;;;;;;11.22;3.65;;;;;;;17.86;79.27;99737.26;1722625;83;21355;-80
2023/06/13 01:14:03;;;;;;;7.03;3.87;;;;;;;17.97;78.68;99737.80;1723042;83;21296;-82
2023/06/13 01:17:20;;;;;;;11.30;4.22;;;;;;;17.87;78.59;99742.55;1709328;84;21310;-79
2023/06/13 01:20:27;;;;;;;5.53;3.87;;;;;;;17.75;79.11;99742.23;1709967;84;21287;-82
2023/06/13 01:24:00;;;;;;;10.15;4.17;;;;;;;17.91;78.68;99747.61;1710520;84;21263;-82
2023/06/13 01:27:06;;;;;;;7.90;3.98;;;;;;;18.04;77.47;99748.23;1710678;84;21252;-79
2023/06/13 01:30:12;;;;;;;8.15;4.08;;;;;;;17.55;79.15;99741.11;1710596;84;21232;-82
2023/06/13 01:33:17;;;;;;;6.87;3.58;;;;;;;17.25;80.38;99741.13;1710641;84;21842;-81
2023/06/13 01:36:22;;;;;;;8.18;3.72;;;;;;;17.44;80.14;99737.77;1710621;84;21157;-80
2023/06/13 01:39:28;;;;;;;13.88;4.20;;;;;;;17.48;79.34;99737.07;1710631;84;21201;-79
2023/06/13 01:42:34;;;;;;;11.03;4.22;;;;;;;17.72;77.47;99723.31;1710711;84;21161;-81
2023/06/13 01:45:41;;;;;;;7.53;3.85;;;;;;;17.33;79.69;99733.36;1710587;84;21184;-82
2023/06/13 01:49:20;;;;;;;7.30;3.62;;;;;;;17.22;80.18;99734.67;1710512;84;21145;-82
2023/06/13 01:52:41;;;;;;;9.85;4.00;;;;;;;17.09;80.91;99732.41;1710725;84;21510;-83
2023/06/13 01:55:52;;;;;;;11.38;4.03;;;;;;;17.16;80.55;99734.23;1689033;84;21292;-80
2023/06/13 01:59:06;;;;;;;8.00;3.55;;;;;;;17.11;81.24;99736.31;1710516;84;21157;-82
2023/06/13 02:02:12;;;;;;;9.75;4.20;;;;;;;17.06;81.89;99731.48;1710545;84;21180;-82
2023/06/13 02:05:19;;;;;;;9.63;4.17;;;;;;;17.28;80.96;99735.14;1709089;84;21172;-79
2023/06/13 02:08:24;;;;;;;10.93;4.30;;;;;;;17.30;80.58;99737.12;1703454;84;21335;-80
2023/06/13 02:11:32;;;;;;;9.13;4.30;;;;;;;17.30;80.72;99733.81;1704940;84;21330;-82
2023/06/13 02:14:39;;;;;;;4.67;3.05;;;;;;;17.32;80.79;99739.12;1690547;85;21299;-80
2023/06/13 02:17:46;;;;;;;11.65;3.58;;;;;;;17.16;81.51;99746.12;1686150;83;21354;-82
2023/06/13 02:20:51;;;;;;;8.43;3.85;;;;;;;17.27;80.46;99741.21;1649338;87;21247;-79
2023/06/13 02:23:58;;;;;;;4.80;3.40;;;;;;;17.31;80.10;99739.67;1678673;85;21291;-82
2023/06/13 02:27:06;;;;;;;9.25;3.45;;;;;;;17.22;80.15;99741.07;1649786;87;21382;-80
2023/06/13 02:30:04;;;;;;;9.93;3.92;;;;;;;17.19;80.10;99740.14;1678690;85;21290;-80
2023/06/13 02:33:13;;;;;;;4.83;3.20;;;;;;;17.33;79.93;99745.80;1649977;85;21337;-81
2023/06/13 02:36:19;;;;;;;8.33;3.52;;;;;;;17.49;79.95;99744.82;1650858;87;21346;-82
2023/06/13 02:39:25;;;;;;;5.75;3.20;;;;;;;17.79;79.28;99744.30;1648827;87;21322;-79
2023/06/13 02:42:31;;;;;;;7.75;3.15;;;;;;;18.03;78.39;99738.80;1650039;87;21346;-82
2023/06/13 02:45:30;;;;;;;6.83;2.80;;;;;;;18.41;77.44;99741.09;1649751;87;21715;-80
2023/06/13 02:48:30;;;;;;;6.95;3.17;;;;;;;18.65;75.36;99741.37;1649408;87;21319;-82
2023/06/13 02:51:37;;;;;;;7.65;3.02;;;;;;;18.70;75.19;99740.67;1649415;87;21211;-82
2023/06/13 02:54:43;;;;;;;5.35;2.87;;;;;;;19.07;73.69;99750.89;1648708;87;21854;-80
2023/06/13 02:57:48;;;;;;;7.72;2.65;;;;;;;19.30;72.57;99749.98;1648784;87;21890;-82
2023/06/13 03:00:56;;;;;;;12.60;3.17;;;;;;;19.53;70.66;99749.59;1649423;85;21341;-80
2023/06/13 03:04:02;;;;;;;8.08;2.55;;;;;;;19.56;69.84;99748.52;1650075;87;21891;-80
2023/06/13 03:07:10;;;;;;;4.70;2.67;;;;;;;19.66;68.77;99741.80;1649403;85;21311;-80
2023/06/13 03:10:19;;;;;;;6.97;2.72;;;;;;;19.73;68.05;99741.66;1672123;86;21880;-83
2023/06/13 03:13:27;;;;;;;7.17;2.85;;;;;;;19.64;67.66;99734.29;1701933;84;21892;-80
2023/06/13 03:16:35;;;;;;;7.67;3.05;;;;;;;19.76;67.10;99741.17;1722266;82;21333;-80
2023/06/13 03:19:41;;;;;;;4.40;2.40;;;;;;;19.79;67.05;99749.52;1687903;85;21866;-82
2023/06/13 03:22:48;;;;;;;4.35;2.52;;;;;;;19.84;66.67;99748.22;1731015;83;21913;-80
2023/06/13 03:25:54;;;;;;;8.60;2.60;;;;;;;19.73;67.00;99754.70;1687504;85;21330;-79
2023/06/13 03:28:59;;;;;;;6.92;2.70;;;;;;;19.74;66.77;99749.44;1730501;83;21273;-80
2023/06/13 03:32:04;;;;;;;5.95;2.67;;;;;;;19.85;66.66;99758.23;1692154;84;21327;-81
2023/06/13 03:35:10;;;;;;;8.78;2.40;;;;;;;19.97;66.33;99754.84;1698661;84;21844;-79
2023/06/13 03:38:15;;;;;;;10.55;2.70;;;;;;;19.77;66.87;99761.44;1697943;84;21367;-79
2023/06/13 03:41:21;;;;;;;6.08;2.70;;;;;;;20.00;65.90;99759.91;1696684;84;21375;-80
2023/06/13 03:44:27;;;;;;;7.15;2.58;;;;;;;20.08;65.60;99766.41;1697570;84;22235;-79
2023/06/13 03:47:34;;;;;;;7.03;2.72;;;;;;;20.11;65.33;99760.91;1718728;83;21308;-81
2023/06/13 03:50:41;;;;;;;5.75;2.42;;;;;;;20.19;64.87;99771.60;1695680;84;21320;-81
2023/06/13 03:53:48;;;;;;;5.15;2.77;;;;;;;20.20;64.33;99769.11;1708679;84;21838;-82
2023/06/13 03:56:52;;;;;;;6.33;2.83;;;;;;;20.24;64.66;99763.91;1696048;84;21368;-80
2023/06/13 04:00:00;;;;;;;12.53;2.33;;;;;;;20.31;63.82;99769.56;1696065;84;21328;-82
2023/06/13 04:03:05;;;;;;;7.20;2.72;;;;;;;20.22;64.28;99772.47;1696129;84;21312;-80
2023/06/13 04:06:12;;;;;;;6.75;2.62;;;;;;;20.44;64.20;99771.16;1696987;84;21329;-83
2023/06/13 04:09:19;;;;;;;7.03;3.25;;;;;;;20.39;63.60;99777.47;1697382;84;21309;-83
2023/06/13 04:12:26;;;;;;;6.05;2.67;;;;;;;20.53;63.58;99773.83;1699768;84;21332;-80
2023/06/13 04:15:32;;;;;;;7.28;2.52;;;;;;;20.66;63.79;99771.25;1699612;84;21335;-81
2023/06/13 04:18:39;;;;;;;3.58;2.42;;;;;;;20.92;63.33;99771.05;1699813;84;21285;-81
2023/06/13 04:21:47;;;;;;;8.25;3.20;;;;;;;21.07;62.89;99772.63;1698848;84;21327;-80
2023/06/13 04:24:53;;;;;;;3.92;2.37;;;;;;;21.08;60.90;99764.61;1699761;84;21316;-82
2023/06/13 04:28:00;;;;;;;6.20;2.62;;;;;;;21.13;61.55;99761.89;1700034;84;21288;-83
2023/06/13 04:31:06;;;;;;;5.05;3.15;;;;;;;20.74;62.03;99765.78;1698782;84;21360;-82
2023/06/13 04:34:13;;;;;;;9.18;3.12;;;;;;;20.62;63.41;99762.58;1698597;84;21349;-80
2023/06/13 04:37:30;;;;;;;6.80;2.90;;;;;;;20.53;63.31;99754.94;1698531;84;21865;-80
2023/06/13 04:40:31;;;;;;;4.05;2.67;;;;;;;20.48;63.94;99758.48;1699123;84;21884;-81
2023/06/13 04:43:34;;;;;;;10.10;2.62;;;;;;;20.50;63.62;99756.27;1700171;84;21296;-81
2023/06/13 04:46:44;;;;;;;7.33;3.10;;;;;;;20.40;64.11;99765.81;1700003;84;21316;-82
2023/06/13 04:49:47;;;;;;;11.70;2.60;;;;;;;20.58;63.77;99762.80;1729107;83;21289;-82
2023/06/13 04:52:41;;;;;;;5.50;2.02;;;;;;;20.59;64.03;99757.52;1698658;84;21292;-82
2023/06/13 04:55:47;;;;;;;9.43;2.95;;;;;;;20.78;63.58;99762.79;1711852;84;21599;-80
2023/06/13 04:58:53;;;;;;;5.78;2.30;;;;;;;20.61;64.16;99753.96;1698564;84;21296;-82
2023/06/13 05:01:59;;;;;;;6.70;2.70;;;;;;;20.67;63.13;99759.03;1698512;84;21328;-82
2023/06/13 05:05:05;;;;;;;8.40;2.98;;;;;;;20.85;63.06;99757.35;1700101;84;21314;-81
2023/06/13 05:08:10;;;;;;;5.92;2.55;;;;;;;21.13;62.37;99766.06;1754048;82;21237;-81
2023/06/13 05:11:15;;;;;;;9.28;3.22;;;;;;;21.12;62.21;99764.35;1753105;81;21265;-81
2023/06/13 05:14:21;;;;;;;12.35;3.22;;;;;;;21.22;61.57;99762.80;1753206;81;21268;-83
2023/06/13 05:17:30;;;;;;;5.70;2.47;;;;;;;21.31;61.10;99771.84;1749876;82;21275;-80
2023/06/13 05:20:35;;;;;;;4.97;2.77;;;;;;;21.06;61.57;99772.34;1745415;82;21829;-82
2023/06/13 05:23:43;;;;;;;7.22;3.67;;;;;;;20.67;62.34;99761.27;1706913;83;21834;-82
2023/06/13 05:26:51;;;;;;;10.05;2.50;;;;;;;20.85;63.27;99763.46;1706667;83;21873;-80
2023/06/13 05:29:57;;;;;;;7.42;2.87;;;;;;;21.06;62.89;99758.45;1707401;84;21321;-82
2023/06/13 05:33:02;;;;;;;8.75;3.12;;;;;;;21.29;62.70;99766.23;1707456;84;21286;-81
2023/06/13 05:36:07;;;;;;;6.83;3.17;;;;;;;21.46;62.01;99760.09;1714129;83;21345;-80
2023/06/13 05:39:12;;;;;;;16.90;3.12;;;;;;;21.63;61.54;99759.97;1730946;83;21303;-81
2023/06/13 05:42:17;;;;;;;5.87;2.70;;;;;;;21.61;62.09;99764.41;1730930;83;21286;-83
2023/06/13 05:45:22;;;;;;;4.45;2.65;;;;;;;21.89;60.19;99761.08;1749721;81;21283;-81
2023/06/13 05:48:29;;;;;;;12.13;3.15;;;;;;;21.73;60.31;99753.66;1755476;81;21277;-81
2023/06/13 05:51:36;;;;;;;6.30;2.90;;;;;;;21.89;59.42;99754.95;1734123;81;21371;-82
2023/06/13 05:54:43;;;;;;;9.83;3.00;;;;;;;21.89;60.52;99758.30;1755286;81;21289;-80
2023/06/13 05:57:51;;;;;;;6.22;3.27;;;;;;;22.35;58.73;99762.34;1756183;81;21282;-81
2023/06/13 06:00:57;;;;;;;10.78;2.72;;;;;;;22.53;59.00;99758.83;1756065;81;21262;-82
2023/06/13 06:04:03;;;;;;;6.85;2.98;;;;;;;22.57;58.35;99761.36;1754704;81;21253;-82
2023/06/13 06:07:08;;;;;;;12.93;2.40;;;;;;;22.37;58.24;99753.70;1723759;81;21316;-82
2023/06/13 06:10:16;;;;;;;5.17;2.70;;;;;;;22.47;58.53;99762.70;1755736;81;21261;-81
2023/06/13 06:13:22;;;;;;;7.83;2.65;;;;;;;22.55;58.51;99753.28;1731709;81;21255;-83
2023/06/13 06:16:28;;;;;;;8.33;3.60;;;;;;;22.14;59.92;99746.01;1738818;81;21316;-81
2023/06/13 06:19:34;;;;;;;12.95;3.47;;;;;;;22.40;58.37;99738.70;1739843;81;21258;-82
2023/06/13 06:22:40;;;;;;;7.83;3.20;;;;;;;22.51;57.51;99745.17;1721254;81;21286;-81
2023/06/13 06:25:45;;;;;;;8.73;2.20;;;;;;;22.50;57.55;99746.28;1756072;81;21250;-82
2023/06/13 06:28:51;;;;;;;6.80;2.95;;;;;;;22.19;59.72;99741.87;1748589;81;21242;-80
2023/06/13 06:31:56;;;;;;;8.45;2.72;;;;;;;22.23;59.23;99739.95;1754620;81;21881;-82
2023/06/13 06:35:03;;;;;;;6.65;2.52;;;;;;;22.38;57.73;99747.02;1755602;81;21270;-82
2023/06/13 06:38:08;;;;;;;13.45;3.10;;;;;;;22.29;58.77;99746.67;1755663;81;21234;-84
2023/06/13 06:41:14;;;;;;;7.37;2.92;;;;;;;22.33;58.25;99747.83;1755081;81;21266;-81
2023/06/13 06:44:20;;;;;;;6.30;2.45;;;;;;;22.33;59.80;99743.64;1755844;81;21269;-82
2023/06/13 06:47:28;;;;;;;5.60;2.85;;;;;;;22.34;60.04;99744.48;1754367;81;21270;-81
2023/06/13 06:50:34;;;;;;;7.53;3.10;;;;;;;22.26;59.75;99744.44;1752338;81;21290;-82
2023/06/13 06:53:40;;;;;;;7.87;2.45;;;;;;;22.46;59.13;99745.14;1708547;84;21888;-83
2023/06/13 06:56:45;;;;;;;11.93;2.47;;;;;;;22.31;60.28;99743.64;1739068;81;21674;-83
2023/06/13 06:59:50;;;;;;;8.50;3.83;;;;;;;22.57;59.21;99748.27;1751891;81;21258;-83
2023/06/13 07:02:55;;;;;;;4.25;2.58;;;;;;;22.71;59.02;99746.68;1753855;81;21249;-83
2023/06/13 07:06:01;;;;;;;13.00;2.55;;;;;;;22.64;60.33;99754.45;1720520;81;21297;-81
2023/06/13 07:09:07;;;;;;;5.83;2.80;;;;;;;22.83;59.47;99751.22;1755737;81;21257;-83
2023/06/13 07:12:13;;;;;;;8.23;2.27;;;;;;;23.08;57.95;99760.30;1740827;81;21273;-84
2023/06/13 07:15:19;;;;;;;8.90;2.58;;;;;;;23.19;57.57;99758.66;1754849;81;21340;-80
2023/06/13 07:18:25;;;;;;;6.47;2.40;;;;;;;23.18;57.44;99759.77;1755251;81;21261;-81
2023/06/13 07:21:31;;;;;;;9.25;2.20;;;;;;;23.25;57.69;99764.28;1754801;81;21300;-83
2023/06/13 07:24:37;;;;;;;6.97;2.20;;;;;;;23.28;57.94;99773.48;1755886;81;21258;-81
2023/06/13 07:27:43;;;;;;;2.83;1.90;;;;;;;23.48;55.96;99762.41;1747821;81;21316;-81
2023/06/13 07:30:49;;;;;;;4.72;2.10;;;;;;;23.45;55.27;99770.77;1742950;81;21903;-83
2023/06/13 07:33:55;;;;;;;6.65;2.37;;;;;;;23.50;55.43;99767.15;1755553;81;21254;-81
2023/06/13 07:37:02;;;;;;;8.10;2.37;;;;;;;23.64;54.19;99764.70;1754308;81;21281;-83
2023/06/13 07:40:09;;;;;;;6.15;2.47;;;;;;;23.36;55.38;99784.12;1755315;81;21269;-83
2023/06/13 07:43:16;;;;;;;4.25;2.25;;;;;;;23.39;54.97;99768.24;1754629;81;21304;-82
2023/06/13 07:46:22;;;;;;;10.13;2.67;;;;;;;23.51;54.81;99777.75;1752907;81;21288;-81
2023/06/13 07:49:30;;;;;;;5.85;2.30;;;;;;;23.60;56.55;99772.75;1754761;81;21754;-83
2023/06/13 07:52:35;;;;;;;12.68;2.80;;;;;;;23.65;55.95;99776.98;1754947;81;21771;-82
2023/06/13 07:55:46;;;;;;;7.72;3.20;;;;;;;23.57;54.91;99766.34;1755536;81;21277;-83
2023/06/13 07:58:44;;;;;;;6.30;2.50;;;;;;;23.70;55.53;99773.36;1756090;81;21261;-81
2023/06/13 08:01:49;;;;;;;10.55;2.72;;;;;;;23.60;55.82;99772.75;1743406;81;21305;-83
2023/06/13 08:04:56;;;;;;;7.90;2.98;;;;;;;23.75;56.64;99767.79;1756061;81;21261;-81
2023/06/13 08:08:02;;;;;;;6.35;2.20;;;;;;;23.95;55.75;99756.67;1758304;81;21314;-81
2023/06/13 08:11:07;;;;;;;11.68;2.87;;;;;;;24.04;54.59;99775.08;1757466;81;21325;-82
2023/06/13 08:14:13;;;;;;;6.08;2.20;;;;;;;24.07;54.40;99771.75;1742074;81;21291;-82
2023/06/13 08:17:18;;;;;;;4.00;2.02;;;;;;;24.42;54.82;99762.57;1737599;81;21301;-82
2023/06/13 08:20:23;;;;;;;11.65;2.62;;;;;;;24.59;55.07;99757.22;1720241;83;21957;-84
2023/06/13 08:23:28;;;;;;;6.10;2.15;;;;;;;24.83;52.31;99756.05;1719832;83;21972;-84
2023/06/13 08:26:38;;;;;;;6.00;2.33;;;;;;;24.81;52.58;99761.09;1748256;81;21284;-82
2023/06/13 08:29:45;;;;;;;6.12;2.40;;;;;;;24.55;53.51;99754.70;1755406;81;21238;-81
2023/06/13 08:32:54;;;;;;;3.83;2.12;;;;;;;25.34;51.37;99765.69;1726192;83;21253;-81
2023/06/13 08:35:55;;;;;;;9.58;2.15;;;;;;;25.45;51.57;99752.77;1745013;81;21265;-83
2023/06/13 08:39:04;;;;;;;8.45;2.45;;;;;;;25.73;51.06;99764.34;1754709;81;21277;-82
2023/06/13 08:42:10;;;;;;;5.37;2.90;;;;;;;25.81;50.44;99755.37;1753754;81;21333;-81
2023/06/13 08:45:17;;;;;;;12.30;2.62;;;;;;;25.57;50.85;99752.97;1747032;81;21340;-81
2023/06/13 08:48:23;;;;;;;8.45;2.10;;;;;;;25.49;50.61;99762.80;1754825;81;21822;-82
2023/06/13 08:51:30;;;;;;;4.67;2.35;;;;;;;25.57;49.96;99757.17;1754621;81;21340;-84
2023/06/13 08:54:36;;;;;;;5.10;2.22;;;;;;;25.32;50.03;99753.39;1746027;81;21838;-83
2023/06/13 08:57:45;;;;;;;10.32;2.22;;;;;;;25.38;50.68;99759.80;1754526;81;21293;-82
2023/06/13 09:00:51;;;;;;;10.05;2.70;;;;;;;25.73;50.60;99754.54;1749165;80;21831;-82
2023/06/13 09:07:58;;;;;;;4.15;2.70;;;;;;;24.92;52.75;99751.55;1706489;83;21727;-84
2023/06/13 09:11:04;;;;;;;7.40;2.55;;;;;;;25.39;51.14;99760.06;1696070;84;21641;-83
2023/06/13 09:14:15;;;;;;;8.83;2.90;;;;;;;24.84;51.50;99757.19;1742750;81;21272;-81
2023/06/13 09:17:23;;;;;;;8.13;2.20;;;;;;;25.06;51.58;99764.37;1746949;81;21267;-83
2023/06/13 09:20:41;;;;;;;5.80;2.40;;;;;;;25.11;51.80;99755.98;1736609;81;21269;-83
2023/06/13 09:23:51;;;;;;;5.37;2.00;;;;;;;25.46;51.62;99753.04;1745837;81;21313;-81
2023/06/13 09:26:57;;;;;;;9.38;3.22;;;;;;;25.63;50.86;99751.23;1756063;81;21304;-82
2023/06/13 09:30:01;;;;;;;5.40;2.58;;;;;;;25.50;50.87;99753.27;1742024;81;21391;-83
2023/06/13 09:33:07;;;;;;;8.28;2.35;;;;;;;25.65;50.70;99742.57;1743373;81;21233;-82
2023/06/13 09:36:13;;;;;;;7.37;2.15;;;;;;;25.48;49.69;99739.58;1711846;81;21269;-81
2023/06/13 09:39:20;;;;;;;7.55;2.42;;;;;;;25.24;51.05;99747.81;1752489;81;21255;-83
2023/06/13 09:42:30;;;;;;;7.20;2.37;;;;;;;25.36;51.13;99734.03;1749303;81;21326;-82
2023/06/13 09:45:37;;;;;;;4.05;2.17;;;;;;;25.26;50.90;99730.73;1749297;81;21316;-83
2023/06/13 09:48:42;;;;;;;9.48;3.65;;;;;;;25.24;51.17;99742.22;1740259;81;21838;-83
2023/06/13 09:51:50;;;;;;;13.95;2.67;;;;;;;25.48;50.48;99743.77;1755212;81;21329;-83
2023/06/13 09:54:56;;;;;;;4.47;2.40;;;;;;;25.61;52.64;99747.91;1748936;81;21238;-83
2023/06/13 09:58:01;;;;;;;3.12;2.12;;;;;;;25.33;51.43;99736.03;1741436;81;21871;-82
2023/06/13 10:01:15;;;;;;;7.47;2.50;;;;;;;25.38;52.16;99736.00;1713309;83;21278;-81
2023/06/13 10:04:16;;;;;;;9.90;2.75;;;;;;;25.36;52.50;99734.03;1701342;83;21864;-84
2023/06/13 10:07:21;;;;;;;7.90;2.55;;;;;;;24.99;53.34;99736.14;1721135;83;21268;-82
2023/06/13 10:10:28;;;;;;;11.40;2.45;;;;;;;25.70;52.53;99738.34;1722394;83;21329;-83
2023/06/13 10:13:34;;;;;;;10.78;2.45;;;;;;;25.88;51.10;99733.48;1704386;84;21347;-81
2023/06/13 10:16:45;;;;;;;7.65;2.33;;;;;;;25.97;50.09;99728.06;1733449;81;21820;-82
2023/06/13 10:19:52;;;;;;;5.35;2.35;;;;;;;26.14;48.89;99723.45;1722058;83;21836;-83
2023/06/13 10:22:59;;;;;;;7.55;2.27;;;;;;;25.94;49.20;99735.67;1716639;83;21312;-83
2023/06/13 10:26:05;;;;;;;23.38;2.90;;;;;;;25.87;50.08;99726.18;1713081;83;21262;-82
2023/06/13 10:30:01;;;;;;;9.55;2.62;;;;;;;25.85;49.89;99727.62;1716845;83;21772;-84
2023/06/13 10:33:41;;;;;;;7.80;3.12;;;;;;;25.95;49.47;99738.74;1709323;83;21262;-83
2023/06/13 10:37:08;;;;;;;9.73;2.62;;;;;;;26.08;49.45;99728.27;1700298;83;21344;-83
2023/06/13 10:40:56;;;;;;;10.70;2.47;;;;;;;26.20;49.92;99732.92;1693771;83;21335;-84
2023/06/13 10:44:16;;;;;;;9.93;2.40;;;;;;;26.55;48.33;99731.53;1714700;83;21317;-83
2023/06/13 10:47:25;;;;;;;7.83;2.60;;;;;;;26.74;47.82;99722.05;1708538;83;21278;-81
2023/06/13 10:50:30;;;;;;;8.68;2.70;;;;;;;26.81;47.51;99715.23;1709929;83;21317;-81
2023/06/13 10:53:34;;;;;;;8.68;2.37;;;;;;;26.88;47.37;99712.92;1715671;83;21305;-84
2023/06/13 10:56:43;;;;;;;12.47;2.58;;;;;;;26.75;47.74;99711.66;1692827;83;21320;-82
2023/06/13 10:59:50;;;;;;;5.45;2.50;;;;;;;26.94;47.68;99718.16;1695638;83;21905;-83
2023/06/13 11:02:57;;;;;;;7.17;2.00;;;;;;;26.91;48.73;99710.91;1699742;83;21291;-82
2023/06/13 11:06:02;;;;;;;19.62;2.50;;;;;;;26.91;48.17;99706.70;1696749;83;21914;-82
2023/06/13 11:09:27;;;;;;;4.58;2.08;;;;;;;26.51;48.05;99694.81;1707155;83;21291;-82
2023/06/13 11:12:32;;;;;;;13.72;3.27;;;;;;;26.65;48.36;99708.98;1690994;84;22254;-81
2023/06/13 11:15:37;;;;;;;5.83;2.10;;;;;;;26.92;46.75;99703.61;1683440;84;21859;-84
2023/06/13 11:18:42;;;;;;;13.30;2.50;;;;;;;26.85;46.88;99699.48;1722542;83;21298;-84
2023/06/13 11:22:07;;;;;;;13.68;2.45;;;;;;;27.08;47.56;99693.59;1707367;83;21338;-84
2023/06/13 11:25:14;;;;;;;10.18;2.70;;;;;;;27.24;46.35;99680.50;1692179;85;21903;-81
2023/06/13 11:28:23;;;;;;;7.05;2.47;;;;;;;27.18;46.80;99680.28;1692346;83;21855;-81
2023/06/13 11:31:29;;;;;;;8.15;2.35;;;;;;;27.37;46.43;99678.89;1715146;83;21298;-80
2023/06/13 11:34:41;;;;;;;5.70;2.85;;;;;;;27.42;45.81;99670.39;1692795;84;21327;-80
2023/06/13 11:37:50;;;;;;;4.37;2.12;;;;;;;27.74;45.59;99676.67;1705975;83;21262;-82
2023/06/13 11:40:59;;;;;;;10.28;2.22;;;;;;;27.25;45.00;99673.73;1689157;84;21307;-82
2023/06/13 11:44:05;;;;;;;10.65;2.30;;;;;;;27.20;46.40;99675.22;1708728;83;21309;-82
2023/06/13 11:47:11;;;;;;;17.85;2.40;;;;;;;27.05;46.05;99671.16;1703586;83;21270;-82
2023/06/13 11:50:16;;;;;;;5.45;1.95;;;;;;;27.18;46.34;99670.45;1703189;83;21317;-84
2023/06/13 11:53:22;;;;;;;8.33;3.40;;;;;;;27.32;45.79;99666.91;1707202;83;21301;-84
2023/06/13 11:56:34;;;;;;;9.78;2.42;;;;;;;27.56;45.38;99662.04;1703746;83;21744;-81
2023/06/13 11:59:40;;;;;;;12.47;2.45;;;;;;;27.68;45.77;99662.42;1707912;83;21303;-81
2023/06/13 12:02:48;;;;;;;9.50;2.47;;;;;;;27.86;44.46;99672.00;1714706;83;21267;-82
2023/06/13 12:05:56;;;;;;;7.87;2.27;;;;;;;27.87;44.72;99666.64;1700075;83;21314;-85
2023/06/13 12:09:02;;;;;;;5.30;2.27;;;;;;;28.01;44.39;99662.47;1707674;83;21278;-82
2023/06/13 12:12:09;;;;;;;8.05;2.40;;;;;;;28.11;43.47;99663.70;1701981;83;21310;-82
2023/06/13 12:15:13;;;;;;;6.33;1.90;;;;;;;28.04;43.97;99663.24;1706182;83;21326;-82
2023/06/13 12:18:17;;;;;;;7.25;2.10;;;;;;;28.02;43.75;99655.70;1732236;81;21278;-84
2023/06/13 12:21:25;;;;;;;4.33;2.02;;;;;;;27.99;44.38;99654.33;1734664;82;21918;-84
2023/06/13 12:24:31;;;;;;;5.75;2.25;;;;;;;28.04;43.65;99660.44;1746642;81;21883;-81
2023/06/13 12:27:37;;;;;;;3.25;2.12;;;;;;;28.19;43.57;99650.92;1748075;81;21304;-81
2023/06/13 12:30:49;;;;;;;11.80;2.25;;;;;;;28.41;43.51;99660.91;1736306;81;21330;-82
2023/06/13 12:33:59;;;;;;;9.28;2.20;;;;;;;28.30;43.32;99652.39;1734523;81;21297;-83
2023/06/13 12:37:12;;;;;;;6.78;2.05;;;;;;;28.35;43.59;99650.08;1729970;82;21286;-83
2023/06/13 12:40:23;;;;;;;8.00;2.30;;;;;;;28.21;42.96;99652.83;1745810;81;21870;-83
2023/06/13 12:43:35;;;;;;;8.93;2.25;;;;;;;28.17;43.20;99641.94;1743903;81;21237;-80
2023/06/13 12:46:42;;;;;;;8.75;2.50;;;;;;;28.23;43.71;99638.74;1752839;81;21353;-81
2023/06/13 12:49:49;;;;;;;10.50;1.90;;;;;;;28.52;43.87;99639.07;1752575;81;21951;-83
2023/06/13 12:52:56;;;;;;;18.40;2.60;;;;;;;28.44;43.40;99642.02;1748536;81;21376;-82
2023/06/13 12:56:02;;;;;;;10.00;2.35;;;;;;;28.19;42.98;99623.63;1747374;81;21289;-82
2023/06/13 12:59:08;;;;;;;14.13;2.65;;;;;;;28.58;42.96;99622.34;1733934;81;21814;-81
2023/06/13 13:02:19;;;;;;;7.30;2.05;;;;;;;28.60;42.88;99631.28;1675979;85;21334;-81
2023/06/13 13:05:25;;;;;;;7.20;2.40;;;;;;;28.62;42.52;99617.76;1704555;84;21874;-84
2023/06/13 13:08:31;;;;;;;8.10;2.20;;;;;;;28.33;43.72;99622.83;1731978;81;21355;-84
2023/06/13 13:11:37;;;;;;;10.03;2.35;;;;;;;28.49;42.33;99624.21;1729138;83;21310;-84
2023/06/13 13:14:43;;;;;;;5.53;1.92;;;;;;;28.34;43.07;99627.30;1734768;81;21251;-83
2023/06/13 13:17:50;;;;;;;10.18;2.27;;;;;;;28.36;43.06;99616.02;1755916;80;21332;-83
2023/06/13 13:20:56;;;;;;;5.78;2.20;;;;;;;28.43;42.87;99631.09;1753308;81;21289;-84
2023/06/13 13:24:02;;;;;;;6.87;2.20;;;;;;;28.58;42.36;99613.91;1755110;81;21846;-84
2023/06/13 13:27:08;;;;;;;6.87;2.70;;;;;;;28.65;42.25;99618.52;1753528;81;21284;-84
2023/06/13 13:30:17;;;;;;;17.75;2.55;;;;;;;28.49;43.62;99620.83;1724787;83;21356;-84
2023/06/13 13:33:25;;;;;;;10.88;2.52;;;;;;;28.34;43.17;99605.66;1722510;82;21313;-83
2023/06/13 13:36:31;;;;;;;5.83;2.02;;;;;;;28.59;43.19;99618.38;1707286;84;21301;-82
2023/06/13 13:39:36;;;;;;;10.48;2.65;;;;;;;28.64;43.12;99613.22;1706185;84;21897;-84
2023/06/13 13:42:41;;;;;;;8.45;2.37;;;;;;;28.94;42.54;99617.38;1707421;84;21289;-82
2023/06/13 13:45:47;;;;;;;11.15;2.12;;;;;;;28.97;42.96;99612.54;1707078;84;21335;-82
2023/06/13 13:48:53;;;;;;;10.08;2.20;;;;;;;29.13;43.26;99618.09;1720895;81;21195;-82
2023/06/13 13:52:00;;;;;;;8.88;2.75;;;;;;;29.13;42.39;99620.91;1753829;81;21284;-84
2023/06/13 13:55:06;;;;;;;8.75;2.05;;;;;;;29.28;41.62;99616.33;1755059;81;21902;-84
2023/06/13 13:58:12;;;;;;;3.75;1.95;;;;;;;28.95;43.33;99612.03;1754028;81;21257;-83
2023/06/13 14:01:19;;;;;;;8.25;2.22;;;;;;;28.50;43.59;99604.77;1755463;81;21284;-84
2023/06/13 14:04:26;;;;;;;7.35;2.45;;;;;;;28.81;42.72;99604.16;1756233;81;21807;-84
2023/06/13 14:07:31;;;;;;;9.88;2.35;;;;;;;28.91;43.75;99603.92;1756174;81;21281;-82
2023/06/13 14:10:38;;;;;;;7.42;1.92;;;;;;;28.85;43.17;99614.47;1755905;81;21289;-82
2023/06/13 14:13:46;;;;;;;12.03;2.00;;;;;;;28.83;42.70;99609.70;1754866;81;21886;-80
2023/06/13 14:16:53;;;;;;;6.10;2.10;;;;;;;29.02;42.48;99601.99;1754914;81;21847;-82
2023/06/13 14:19:59;;;;;;;4.15;1.87;;;;;;;28.60;43.11;99594.72;1754487;81;21309;-83
2023/06/13 14:23:05;;;;;;;9.58;2.30;;;;;;;28.65;43.18;99602.22;1756386;81;21258;-80
2023/06/13 14:26:12;;;;;;;11.73;3.00;;;;;;;28.52;42.85;99601.09;1755562;81;21884;-80
2023/06/13 14:29:18;;;;;;;5.12;2.42;;;;;;;28.69;42.75;99597.63;1754972;81;21277;-81
2023/06/13 14:32:24;;;;;;;8.73;2.27;;;;;;;28.73;42.66;99593.88;1756246;81;21249;-81
2023/06/13 14:35:28;;;;;;;6.62;2.25;;;;;;;28.75;42.73;99590.20;1756016;81;21285;-83
2023/06/13 14:38:38;;;;;;;7.65;2.92;;;;;;;28.56;43.62;99592.30;1755889;81;21257;-84
2023/06/13 14:41:43;;;;;;;8.98;2.35;;;;;;;28.67;42.92;99597.95;1755265;81;21289;-83
2023/06/13 14:44:51;;;;;;;7.17;1.62;;;;;;;28.81;42.72;99590.08;1756122;81;21261;-81